sensor_id;sensor_type;location;lat;lon;timestamp;P1;durP1;ratioP1;P2;durP2;ratioP2
74227;SDS011;62587;52.352;5.006;2023-03-19T00:01:26;3.78;;;3.00;;
74227;SDS011;62587;52.352;5.006;2023-03-19T00:03:52;3.47;;;2.92;;
74227;SDS011;62587;52.352;5.006;2023-03-19T00:06:17;4.53;;;2.45;;
74227;SDS011;62587;52.352;5.006;2023-03-19T00:08:43;2.95;;;2.58;;
74227;SDS011;62587;52.352;5.006;2023-03-19T00:11:09;5.20;;;2.83;;
74227;SDS011;62587;52.352;5.006;2023-03-19T00:13:36;6.07;;;2.70;;
74227;SDS011;62587;52.352;5.006;2023-03-19T00:16:02;3.83;;;2.67;;
74227;SDS011;62587;52.352;5.006;2023-03-19T00:18:28;3.00;;;2.55;;
74227;SDS011;62587;52.352;5.006;2023-03-19T00:20:53;3.73;;;2.90;;
74227;SDS011;62587;52.352;5.006;2023-03-19T00:23:18;3.70;;;2.60;;
74227;SDS011;62587;52.352;5.006;2023-03-19T00:25:44;4.03;;;2.70;;
74227;SDS011;62587;52.352;5.006;2023-03-19T00:28:09;4.28;;;2.88;;
74227;SDS011;62587;52.352;5.006;2023-03-19T00:30:34;4.43;;;3.15;;
74227;SDS011;62587;52.352;5.006;2023-03-19T00:33:00;3.90;;;2.80;;
74227;SDS011;62587;52.352;5.006;2023-03-19T00:35:26;3.70;;;2.50;;
74227;SDS011;62587;52.352;5.006;2023-03-19T00:37:51;6.22;;;2.90;;
74227;SDS011;62587;52.352;5.006;2023-03-19T00:40:17;3.38;;;2.78;;
74227;SDS011;62587;52.352;5.006;2023-03-19T00:42:42;3.60;;;2.50;;
74227;SDS011;62587;52.352;5.006;2023-03-19T00:45:09;4.97;;;2.70;;
74227;SDS011;62587;52.352;5.006;2023-03-19T00:47:35;5.70;;;2.85;;
74227;SDS011;62587;52.352;5.006;2023-03-19T00:50:01;3.65;;;2.10;;
74227;SDS011;62587;52.352;5.006;2023-03-19T00:52:26;2.97;;;2.20;;
74227;SDS011;62587;52.352;5.006;2023-03-19T00:54:52;7.13;;;2.97;;
74227;SDS011;62587;52.352;5.006;2023-03-19T00:57:17;3.83;;;2.43;;
74227;SDS011;62587;52.352;5.006;2023-03-19T00:59:42;4.80;;;2.30;;
74227;SDS011;62587;52.352;5.006;2023-03-19T01:02:08;4.43;;;2.50;;
74227;SDS011;62587;52.352;5.006;2023-03-19T01:04:33;4.22;;;2.70;;
74227;SDS011;62587;52.352;5.006;2023-03-19T01:06:58;4.07;;;2.60;;
74227;SDS011;62587;52.352;5.006;2023-03-19T01:09:24;3.65;;;2.20;;
74227;SDS011;62587;52.352;5.006;2023-03-19T01:11:50;4.18;;;2.45;;
74227;SDS011;62587;52.352;5.006;2023-03-19T01:14:16;4.97;;;2.20;;
74227;SDS011;62587;52.352;5.006;2023-03-19T01:16:41;3.75;;;2.50;;
74227;SDS011;62587;52.352;5.006;2023-03-19T01:19:07;4.40;;;2.70;;
74227;SDS011;62587;52.352;5.006;2023-03-19T01:21:32;4.13;;;2.67;;
74227;SDS011;62587;52.352;5.006;2023-03-19T01:23:59;3.70;;;2.53;;
74227;SDS011;62587;52.352;5.006;2023-03-19T01:26:25;4.22;;;2.10;;
74227;SDS011;62587;52.352;5.006;2023-03-19T01:28:51;4.50;;;2.42;;
74227;SDS011;62587;52.352;5.006;2023-03-19T01:31:16;3.65;;;2.28;;
74227;SDS011;62587;52.352;5.006;2023-03-19T01:33:42;3.20;;;2.22;;
74227;SDS011;62587;52.352;5.006;2023-03-19T01:36:08;6.20;;;2.92;;
74227;SDS011;62587;52.352;5.006;2023-03-19T01:38:34;4.30;;;2.63;;
74227;SDS011;62587;52.352;5.006;2023-03-19T01:40:59;5.07;;;2.75;;
74227;SDS011;62587;52.352;5.006;2023-03-19T01:43:28;8.07;;;2.63;;
74227;SDS011;62587;52.352;5.006;2023-03-19T01:45:56;5.28;;;3.25;;
74227;SDS011;62587;52.352;5.006;2023-03-19T01:51:08;5.13;;;2.95;;
74227;SDS011;62587;52.352;5.006;2023-03-19T01:53:36;5.05;;;2.70;;
74227;SDS011;62587;52.352;5.006;2023-03-19T01:56:14;5.28;;;2.85;;
74227;SDS011;62587;52.352;5.006;2023-03-19T01:58:44;4.03;;;2.38;;
74227;SDS011;62587;52.352;5.006;2023-03-19T02:01:12;3.85;;;2.70;;
74227;SDS011;62587;52.352;5.006;2023-03-19T02:03:38;3.80;;;2.65;;
74227;SDS011;62587;52.352;5.006;2023-03-19T02:06:04;4.18;;;2.85;;
74227;SDS011;62587;52.352;5.006;2023-03-19T02:08:31;3.72;;;2.55;;
74227;SDS011;62587;52.352;5.006;2023-03-19T02:10:57;4.53;;;2.85;;
74227;SDS011;62587;52.352;5.006;2023-03-19T02:13:25;5.28;;;2.83;;
74227;SDS011;62587;52.352;5.006;2023-03-19T02:15:52;3.80;;;3.05;;
74227;SDS011;62587;52.352;5.006;2023-03-19T02:18:18;4.43;;;2.88;;
74227;SDS011;62587;52.352;5.006;2023-03-19T02:20:53;3.25;;;2.95;;
74227;SDS011;62587;52.352;5.006;2023-03-19T02:24:16;3.38;;;2.72;;
74227;SDS011;62587;52.352;5.006;2023-03-19T02:26:25;3.92;;;2.70;;
74227;SDS011;62587;52.352;5.006;2023-03-19T02:28:53;4.50;;;2.92;;
74227;SDS011;62587;52.352;5.006;2023-03-19T02:31:19;4.50;;;2.80;;
74227;SDS011;62587;52.352;5.006;2023-03-19T02:33:55;4.07;;;3.33;;
74227;SDS011;62587;52.352;5.006;2023-03-19T02:36:26;3.10;;;2.70;;
74227;SDS011;62587;52.352;5.006;2023-03-19T02:39:02;2.95;;;2.40;;
74227;SDS011;62587;52.352;5.006;2023-03-19T02:41:30;4.13;;;2.72;;
74227;SDS011;62587;52.352;5.006;2023-03-19T02:43:58;3.88;;;2.60;;
74227;SDS011;62587;52.352;5.006;2023-03-19T02:46:27;3.75;;;2.60;;
74227;SDS011;62587;52.352;5.006;2023-03-19T02:48:52;3.10;;;2.80;;
74227;SDS011;62587;52.352;5.006;2023-03-19T02:51:17;4.00;;;3.15;;
74227;SDS011;62587;52.352;5.006;2023-03-19T02:53:43;3.25;;;2.88;;
74227;SDS011;62587;52.352;5.006;2023-03-19T02:56:09;2.97;;;2.53;;
74227;SDS011;62587;52.352;5.006;2023-03-19T02:58:34;3.30;;;2.92;;
74227;SDS011;62587;52.352;5.006;2023-03-19T03:01:00;4.45;;;3.47;;
74227;SDS011;62587;52.352;5.006;2023-03-19T03:03:25;4.07;;;3.03;;
74227;SDS011;62587;52.352;5.006;2023-03-19T03:05:51;3.38;;;3.00;;
74227;SDS011;62587;52.352;5.006;2023-03-19T03:08:16;3.72;;;2.67;;
74227;SDS011;62587;52.352;5.006;2023-03-19T03:10:42;4.70;;;3.15;;
74227;SDS011;62587;52.352;5.006;2023-03-19T03:13:08;4.00;;;3.00;;
74227;SDS011;62587;52.352;5.006;2023-03-19T03:15:33;3.65;;;2.97;;
74227;SDS011;62587;52.352;5.006;2023-03-19T03:17:59;3.95;;;3.17;;
74227;SDS011;62587;52.352;5.006;2023-03-19T03:20:24;4.45;;;2.75;;
74227;SDS011;62587;52.352;5.006;2023-03-19T03:22:50;4.32;;;3.20;;
74227;SDS011;62587;52.352;5.006;2023-03-19T03:25:16;4.15;;;3.63;;
74227;SDS011;62587;52.352;5.006;2023-03-19T03:27:41;4.95;;;3.28;;
74227;SDS011;62587;52.352;5.006;2023-03-19T03:30:07;4.85;;;3.30;;
74227;SDS011;62587;52.352;5.006;2023-03-19T03:32:35;4.13;;;3.05;;
74227;SDS011;62587;52.352;5.006;2023-03-19T03:35:01;3.85;;;3.08;;
74227;SDS011;62587;52.352;5.006;2023-03-19T03:37:28;3.58;;;3.20;;
74227;SDS011;62587;52.352;5.006;2023-03-19T03:39:53;4.25;;;3.45;;
74227;SDS011;62587;52.352;5.006;2023-03-19T03:42:18;4.03;;;3.63;;
74227;SDS011;62587;52.352;5.006;2023-03-19T03:44:44;3.80;;;3.40;;
74227;SDS011;62587;52.352;5.006;2023-03-19T03:47:09;4.70;;;3.08;;
74227;SDS011;62587;52.352;5.006;2023-03-19T03:49:35;4.10;;;3.28;;
74227;SDS011;62587;52.352;5.006;2023-03-19T03:52:00;4.05;;;3.28;;
74227;SDS011;62587;52.352;5.006;2023-03-19T03:54:26;3.50;;;3.20;;
74227;SDS011;62587;52.352;5.006;2023-03-19T03:56:51;3.55;;;3.25;;
74227;SDS011;62587;52.352;5.006;2023-03-19T03:59:16;3.67;;;3.13;;
74227;SDS011;62587;52.352;5.006;2023-03-19T04:01:42;3.63;;;3.13;;
74227;SDS011;62587;52.352;5.006;2023-03-19T04:04:07;4.38;;;3.33;;
74227;SDS011;62587;52.352;5.006;2023-03-19T04:06:33;3.72;;;3.30;;
74227;SDS011;62587;52.352;5.006;2023-03-19T04:08:59;3.97;;;3.35;;
74227;SDS011;62587;52.352;5.006;2023-03-19T04:11:25;3.90;;;3.50;;
74227;SDS011;62587;52.352;5.006;2023-03-19T04:13:50;3.85;;;3.28;;
74227;SDS011;62587;52.352;5.006;2023-03-19T04:16:16;3.53;;;3.05;;
74227;SDS011;62587;52.352;5.006;2023-03-19T04:18:41;3.80;;;3.50;;
74227;SDS011;62587;52.352;5.006;2023-03-19T04:21:06;3.20;;;2.90;;
74227;SDS011;62587;52.352;5.006;2023-03-19T04:23:33;4.15;;;3.38;;
74227;SDS011;62587;52.352;5.006;2023-03-19T04:26:02;3.25;;;2.60;;
74227;SDS011;62587;52.352;5.006;2023-03-19T04:28:29;3.88;;;3.20;;
74227;SDS011;62587;52.352;5.006;2023-03-19T04:31:01;3.67;;;3.17;;
74227;SDS011;62587;52.352;5.006;2023-03-19T04:33:28;4.22;;;3.38;;
74227;SDS011;62587;52.352;5.006;2023-03-19T04:35:54;4.65;;;3.60;;
74227;SDS011;62587;52.352;5.006;2023-03-19T04:38:20;3.85;;;3.50;;
74227;SDS011;62587;52.352;5.006;2023-03-19T04:40:46;4.45;;;3.90;;
74227;SDS011;62587;52.352;5.006;2023-03-19T04:43:12;3.75;;;3.35;;
74227;SDS011;62587;52.352;5.006;2023-03-19T04:45:38;4.22;;;3.28;;
74227;SDS011;62587;52.352;5.006;2023-03-19T04:48:03;5.20;;;4.10;;
74227;SDS011;62587;52.352;5.006;2023-03-19T04:50:29;4.65;;;3.75;;
74227;SDS011;62587;52.352;5.006;2023-03-19T04:52:54;5.03;;;4.00;;
74227;SDS011;62587;52.352;5.006;2023-03-19T04:55:20;4.30;;;3.10;;
74227;SDS011;62587;52.352;5.006;2023-03-19T04:57:45;5.07;;;4.15;;
74227;SDS011;62587;52.352;5.006;2023-03-19T05:00:11;4.22;;;3.83;;
74227;SDS011;62587;52.352;5.006;2023-03-19T05:02:38;4.18;;;3.78;;
74227;SDS011;62587;52.352;5.006;2023-03-19T05:05:04;4.65;;;4.07;;
74227;SDS011;62587;52.352;5.006;2023-03-19T05:07:31;4.05;;;3.65;;
74227;SDS011;62587;52.352;5.006;2023-03-19T05:09:57;4.47;;;4.07;;
74227;SDS011;62587;52.352;5.006;2023-03-19T05:12:23;4.43;;;4.03;;
74227;SDS011;62587;52.352;5.006;2023-03-19T05:14:48;4.65;;;4.15;;
74227;SDS011;62587;52.352;5.006;2023-03-19T05:17:13;4.30;;;3.90;;
74227;SDS011;62587;52.352;5.006;2023-03-19T05:19:39;4.97;;;4.25;;
74227;SDS011;62587;52.352;5.006;2023-03-19T05:22:04;5.40;;;4.70;;
74227;SDS011;62587;52.352;5.006;2023-03-19T05:24:30;5.43;;;4.55;;
74227;SDS011;62587;52.352;5.006;2023-03-19T05:26:55;4.90;;;4.40;;
74227;SDS011;62587;52.352;5.006;2023-03-19T05:29:21;4.87;;;4.37;;
74227;SDS011;62587;52.352;5.006;2023-03-19T05:31:47;5.55;;;4.50;;
74227;SDS011;62587;52.352;5.006;2023-03-19T05:34:13;5.47;;;4.97;;
74227;SDS011;62587;52.352;5.006;2023-03-19T05:36:38;5.38;;;4.50;;
74227;SDS011;62587;52.352;5.006;2023-03-19T05:39:04;5.85;;;4.90;;
74227;SDS011;62587;52.352;5.006;2023-03-19T05:41:30;4.97;;;4.47;;
74227;SDS011;62587;52.352;5.006;2023-03-19T05:43:56;7.53;;;4.75;;
74227;SDS011;62587;52.352;5.006;2023-03-19T05:46:21;5.82;;;5.32;;
74227;SDS011;62587;52.352;5.006;2023-03-19T05:48:47;5.53;;;5.00;;
74227;SDS011;62587;52.352;5.006;2023-03-19T05:51:12;5.63;;;5.03;;
74227;SDS011;62587;52.352;5.006;2023-03-19T05:53:37;5.47;;;4.97;;
74227;SDS011;62587;52.352;5.006;2023-03-19T05:56:03;5.72;;;5.13;;
74227;SDS011;62587;52.352;5.006;2023-03-19T05:58:29;5.30;;;4.80;;
74227;SDS011;62587;52.352;5.006;2023-03-19T06:00:55;6.85;;;5.53;;
74227;SDS011;62587;52.352;5.006;2023-03-19T06:03:21;5.88;;;5.28;;
74227;SDS011;62587;52.352;5.006;2023-03-19T06:05:50;6.47;;;5.88;;
74227;SDS011;62587;52.352;5.006;2023-03-19T06:08:16;5.93;;;5.30;;
74227;SDS011;62587;52.352;5.006;2023-03-19T06:10:42;6.70;;;5.70;;
74227;SDS011;62587;52.352;5.006;2023-03-19T06:13:07;6.32;;;5.70;;
74227;SDS011;62587;52.352;5.006;2023-03-19T06:15:33;7.45;;;6.43;;
74227;SDS011;62587;52.352;5.006;2023-03-19T06:17:58;6.63;;;5.85;;
74227;SDS011;62587;52.352;5.006;2023-03-19T06:20:23;6.95;;;6.15;;
74227;SDS011;62587;52.352;5.006;2023-03-19T06:22:50;6.82;;;6.00;;
74227;SDS011;62587;52.352;5.006;2023-03-19T06:25:16;6.90;;;6.20;;
74227;SDS011;62587;52.352;5.006;2023-03-19T06:27:41;7.82;;;7.03;;
74227;SDS011;62587;52.352;5.006;2023-03-19T06:30:07;8.65;;;7.03;;
74227;SDS011;62587;52.352;5.006;2023-03-19T06:32:33;7.03;;;6.32;;
74227;SDS011;62587;52.352;5.006;2023-03-19T06:35:00;7.65;;;6.78;;
74227;SDS011;62587;52.352;5.006;2023-03-19T06:37:25;7.70;;;6.68;;
74227;SDS011;62587;52.352;5.006;2023-03-19T06:39:51;7.28;;;6.57;;
74227;SDS011;62587;52.352;5.006;2023-03-19T06:42:18;8.45;;;7.65;;
74227;SDS011;62587;52.352;5.006;2023-03-19T06:44:45;9.68;;;7.28;;
74227;SDS011;62587;52.352;5.006;2023-03-19T06:47:11;8.60;;;7.40;;
74227;SDS011;62587;52.352;5.006;2023-03-19T06:49:36;8.55;;;7.75;;
74227;SDS011;62587;52.352;5.006;2023-03-19T06:52:02;7.33;;;6.40;;
74227;SDS011;62587;52.352;5.006;2023-03-19T06:54:27;8.93;;;8.02;;
74227;SDS011;62587;52.352;5.006;2023-03-19T06:56:53;8.35;;;7.55;;
74227;SDS011;62587;52.352;5.006;2023-03-19T06:59:18;7.95;;;6.75;;
74227;SDS011;62587;52.352;5.006;2023-03-19T07:01:43;9.30;;;8.25;;
74227;SDS011;62587;52.352;5.006;2023-03-19T07:04:10;8.70;;;7.80;;
74227;SDS011;62587;52.352;5.006;2023-03-19T07:06:36;8.63;;;7.75;;
74227;SDS011;62587;52.352;5.006;2023-03-19T07:09:02;8.80;;;7.93;;
74227;SDS011;62587;52.352;5.006;2023-03-19T07:11:27;8.45;;;7.55;;
74227;SDS011;62587;52.352;5.006;2023-03-19T07:13:52;8.32;;;7.53;;
74227;SDS011;62587;52.352;5.006;2023-03-19T07:16:18;8.80;;;7.90;;
74227;SDS011;62587;52.352;5.006;2023-03-19T07:18:43;8.67;;;7.77;;
74227;SDS011;62587;52.352;5.006;2023-03-19T07:21:08;8.73;;;7.87;;
74227;SDS011;62587;52.352;5.006;2023-03-19T07:23:34;8.27;;;7.43;;
74227;SDS011;62587;52.352;5.006;2023-03-19T07:25:59;8.65;;;7.75;;
74227;SDS011;62587;52.352;5.006;2023-03-19T07:28:24;9.33;;;8.03;;
74227;SDS011;62587;52.352;5.006;2023-03-19T07:30:50;9.57;;;8.57;;
74227;SDS011;62587;52.352;5.006;2023-03-19T07:33:17;8.90;;;8.00;;
74227;SDS011;62587;52.352;5.006;2023-03-19T07:35:43;8.68;;;7.82;;
74227;SDS011;62587;52.352;5.006;2023-03-19T07:38:08;8.90;;;8.00;;
74227;SDS011;62587;52.352;5.006;2023-03-19T07:40:33;8.35;;;7.35;;
74227;SDS011;62587;52.352;5.006;2023-03-19T07:42:59;8.40;;;7.60;;
74227;SDS011;62587;52.352;5.006;2023-03-19T07:45:24;9.60;;;8.70;;
74227;SDS011;62587;52.352;5.006;2023-03-19T07:47:50;9.32;;;7.78;;
74227;SDS011;62587;52.352;5.006;2023-03-19T07:50:15;8.73;;;7.82;;
74227;SDS011;62587;52.352;5.006;2023-03-19T07:52:41;8.82;;;7.93;;
74227;SDS011;62587;52.352;5.006;2023-03-19T07:55:09;8.13;;;7.32;;
74227;SDS011;62587;52.352;5.006;2023-03-19T07:57:34;8.20;;;7.40;;
74227;SDS011;62587;52.352;5.006;2023-03-19T08:00:00;8.50;;;7.57;;
74227;SDS011;62587;52.352;5.006;2023-03-19T08:02:25;7.97;;;7.18;;
74227;SDS011;62587;52.352;5.006;2023-03-19T08:04:50;7.95;;;6.65;;
74227;SDS011;62587;52.352;5.006;2023-03-19T08:07:16;8.02;;;6.72;;
74227;SDS011;62587;52.352;5.006;2023-03-19T08:09:44;7.45;;;6.65;;
74227;SDS011;62587;52.352;5.006;2023-03-19T08:12:09;8.10;;;6.97;;
74227;SDS011;62587;52.352;5.006;2023-03-19T08:14:35;7.38;;;6.57;;
74227;SDS011;62587;52.352;5.006;2023-03-19T08:17:00;7.30;;;6.60;;
74227;SDS011;62587;52.352;5.006;2023-03-19T08:19:26;6.63;;;5.75;;
74227;SDS011;62587;52.352;5.006;2023-03-19T08:21:51;7.35;;;6.25;;
74227;SDS011;62587;52.352;5.006;2023-03-19T08:24:16;7.20;;;6.50;;
74227;SDS011;62587;52.352;5.006;2023-03-19T08:26:42;8.10;;;6.90;;
74227;SDS011;62587;52.352;5.006;2023-03-19T08:29:08;7.68;;;6.88;;
74227;SDS011;62587;52.352;5.006;2023-03-19T08:31:33;7.32;;;6.40;;
74227;SDS011;62587;52.352;5.006;2023-03-19T08:33:58;7.35;;;6.25;;
74227;SDS011;62587;52.352;5.006;2023-03-19T08:36:26;7.32;;;6.53;;
74227;SDS011;62587;52.352;5.006;2023-03-19T08:38:52;10.10;;;6.45;;
74227;SDS011;62587;52.352;5.006;2023-03-19T08:41:19;6.53;;;5.82;;
74227;SDS011;62587;52.352;5.006;2023-03-19T08:43:47;7.35;;;5.88;;
74227;SDS011;62587;52.352;5.006;2023-03-19T08:46:13;7.13;;;6.05;;
74227;SDS011;62587;52.352;5.006;2023-03-19T08:48:38;7.60;;;6.43;;
74227;SDS011;62587;52.352;5.006;2023-03-19T08:51:03;8.50;;;6.30;;
74227;SDS011;62587;52.352;5.006;2023-03-19T08:53:30;9.13;;;6.13;;
74227;SDS011;62587;52.352;5.006;2023-03-19T08:55:57;7.10;;;5.88;;
74227;SDS011;62587;52.352;5.006;2023-03-19T08:58:25;7.40;;;6.50;;
74227;SDS011;62587;52.352;5.006;2023-03-19T09:00:51;8.82;;;6.40;;
74227;SDS011;62587;52.352;5.006;2023-03-19T09:03:18;8.23;;;5.97;;
74227;SDS011;62587;52.352;5.006;2023-03-19T09:05:44;9.18;;;6.65;;
74227;SDS011;62587;52.352;5.006;2023-03-19T09:08:10;8.88;;;6.80;;
74227;SDS011;62587;52.352;5.006;2023-03-19T09:10:35;13.77;;;6.78;;
74227;SDS011;62587;52.352;5.006;2023-03-19T09:13:01;9.75;;;6.70;;
74227;SDS011;62587;52.352;5.006;2023-03-19T09:15:27;8.95;;;6.53;;
74227;SDS011;62587;52.352;5.006;2023-03-19T09:17:52;8.43;;;6.38;;
74227;SDS011;62587;52.352;5.006;2023-03-19T09:20:18;8.88;;;6.43;;
74227;SDS011;62587;52.352;5.006;2023-03-19T09:22:43;9.43;;;6.20;;
74227;SDS011;62587;52.352;5.006;2023-03-19T09:25:09;8.75;;;5.72;;
74227;SDS011;62587;52.352;5.006;2023-03-19T09:27:34;9.38;;;6.72;;
74227;SDS011;62587;52.352;5.006;2023-03-19T09:30:00;11.90;;;6.40;;
74227;SDS011;62587;52.352;5.006;2023-03-19T09:32:26;10.05;;;6.75;;
74227;SDS011;62587;52.352;5.006;2023-03-19T09:34:51;8.32;;;6.15;;
74227;SDS011;62587;52.352;5.006;2023-03-19T09:37:17;10.48;;;7.10;;
74227;SDS011;62587;52.352;5.006;2023-03-19T09:39:42;9.38;;;7.30;;
74227;SDS011;62587;52.352;5.006;2023-03-19T09:49:38;10.32;;;7.35;;
74227;SDS011;62587;52.352;5.006;2023-03-19T09:55:48;10.45;;;7.55;;
74227;SDS011;62587;52.352;5.006;2023-03-19T09:57:48;10.27;;;7.70;;
74227;SDS011;62587;52.352;5.006;2023-03-19T10:00:27;12.40;;;8.52;;
74227;SDS011;62587;52.352;5.006;2023-03-19T10:05:51;10.50;;;8.00;;
74227;SDS011;62587;52.352;5.006;2023-03-19T10:08:28;12.38;;;8.70;;
74227;SDS011;62587;52.352;5.006;2023-03-19T10:17:00;10.70;;;7.90;;
74227;SDS011;62587;52.352;5.006;2023-03-19T10:22:07;10.30;;;7.72;;
74227;SDS011;62587;52.352;5.006;2023-03-19T10:24:39;12.90;;;8.43;;
74227;SDS011;62587;52.352;5.006;2023-03-19T10:29:43;11.43;;;8.43;;
74227;SDS011;62587;52.352;5.006;2023-03-19T10:32:19;12.50;;;8.25;;
74227;SDS011;62587;52.352;5.006;2023-03-19T10:34:58;12.88;;;9.25;;
74227;SDS011;62587;52.352;5.006;2023-03-19T10:37:30;10.93;;;8.52;;
74227;SDS011;62587;52.352;5.006;2023-03-19T10:39:59;13.85;;;9.20;;
74227;SDS011;62587;52.352;5.006;2023-03-19T10:45:17;13.10;;;9.43;;
74227;SDS011;62587;52.352;5.006;2023-03-19T10:47:50;13.93;;;9.15;;
74227;SDS011;62587;52.352;5.006;2023-03-19T10:50:18;13.63;;;10.20;;
74227;SDS011;62587;52.352;5.006;2023-03-19T10:52:50;14.90;;;10.68;;
74227;SDS011;62587;52.352;5.006;2023-03-19T10:55:23;16.42;;;10.70;;
74227;SDS011;62587;52.352;5.006;2023-03-19T10:57:50;14.15;;;9.68;;
74227;SDS011;62587;52.352;5.006;2023-03-19T11:00:25;15.90;;;9.55;;
74227;SDS011;62587;52.352;5.006;2023-03-19T11:02:56;14.77;;;10.18;;
74227;SDS011;62587;52.352;5.006;2023-03-19T11:05:27;16.60;;;11.00;;
74227;SDS011;62587;52.352;5.006;2023-03-19T11:07:54;14.65;;;11.52;;
74227;SDS011;62587;52.352;5.006;2023-03-19T11:10:34;13.60;;;10.02;;
74227;SDS011;62587;52.352;5.006;2023-03-19T11:13:14;16.58;;;10.88;;
74227;SDS011;62587;52.352;5.006;2023-03-19T11:15:47;16.00;;;10.65;;
74227;SDS011;62587;52.352;5.006;2023-03-19T11:21:25;13.48;;;10.45;;
74227;SDS011;62587;52.352;5.006;2023-03-19T11:23:58;16.73;;;10.73;;
74227;SDS011;62587;52.352;5.006;2023-03-19T11:26:26;13.60;;;10.10;;
74227;SDS011;62587;52.352;5.006;2023-03-19T11:28:53;14.02;;;9.43;;
74227;SDS011;62587;52.352;5.006;2023-03-19T11:39:27;12.98;;;9.75;;
74227;SDS011;62587;52.352;5.006;2023-03-19T11:47:36;14.02;;;9.93;;
74227;SDS011;62587;52.352;5.006;2023-03-19T11:50:24;15.20;;;10.32;;
74227;SDS011;62587;52.352;5.006;2023-03-19T12:00:55;12.40;;;9.75;;
74227;SDS011;62587;52.352;5.006;2023-03-19T12:06:12;12.88;;;9.77;;
74227;SDS011;62587;52.352;5.006;2023-03-19T12:08:59;13.68;;;10.30;;
74227;SDS011;62587;52.352;5.006;2023-03-19T12:14:18;13.13;;;10.00;;
74227;SDS011;62587;52.352;5.006;2023-03-19T12:19:48;12.02;;;9.30;;
74227;SDS011;62587;52.352;5.006;2023-03-19T12:25:02;13.05;;;10.32;;
74227;SDS011;62587;52.352;5.006;2023-03-19T12:30:37;12.35;;;8.77;;
74227;SDS011;62587;52.352;5.006;2023-03-19T12:33:22;13.52;;;9.02;;
74227;SDS011;62587;52.352;5.006;2023-03-19T12:36:06;13.73;;;8.73;;
74227;SDS011;62587;52.352;5.006;2023-03-19T12:38:40;11.38;;;8.40;;
74227;SDS011;62587;52.352;5.006;2023-03-19T12:41:15;13.90;;;9.95;;
74227;SDS011;62587;52.352;5.006;2023-03-19T12:43:56;12.75;;;9.68;;
74227;SDS011;62587;52.352;5.006;2023-03-19T12:47:11;15.00;;;10.02;;
74227;SDS011;62587;52.352;5.006;2023-03-19T12:52:15;14.07;;;9.45;;
74227;SDS011;62587;52.352;5.006;2023-03-19T12:54:57;17.65;;;10.18;;
74227;SDS011;62587;52.352;5.006;2023-03-19T12:57:42;14.15;;;9.70;;
74227;SDS011;62587;52.352;5.006;2023-03-19T13:00:26;14.25;;;10.15;;
74227;SDS011;62587;52.352;5.006;2023-03-19T13:03:03;13.23;;;10.10;;
74227;SDS011;62587;52.352;5.006;2023-03-19T13:05:39;13.90;;;9.23;;
74227;SDS011;62587;52.352;5.006;2023-03-19T13:08:23;13.90;;;9.75;;
74227;SDS011;62587;52.352;5.006;2023-03-19T13:10:56;12.05;;;9.32;;
74227;SDS011;62587;52.352;5.006;2023-03-19T13:19:02;13.00;;;9.25;;
74227;SDS011;62587;52.352;5.006;2023-03-19T13:21:34;13.98;;;10.63;;
74227;SDS011;62587;52.352;5.006;2023-03-19T13:26:29;13.88;;;9.32;;
74227;SDS011;62587;52.352;5.006;2023-03-19T13:29:28;12.75;;;8.93;;
74227;SDS011;62587;52.352;5.006;2023-03-19T13:31:51;11.90;;;9.07;;
74227;SDS011;62587;52.352;5.006;2023-03-19T13:36:53;12.10;;;8.48;;
74227;SDS011;62587;52.352;5.006;2023-03-19T13:39:29;14.68;;;8.80;;
74227;SDS011;62587;52.352;5.006;2023-03-19T13:44:33;11.90;;;9.07;;
74227;SDS011;62587;52.352;5.006;2023-03-19T13:50:00;10.52;;;8.20;;
74227;SDS011;62587;52.352;5.006;2023-03-19T13:55:26;10.17;;;7.93;;
74227;SDS011;62587;52.352;5.006;2023-03-19T13:58:12;9.80;;;7.93;;
74227;SDS011;62587;52.352;5.006;2023-03-19T14:01:11;10.13;;;7.85;;
74227;SDS011;62587;52.352;5.006;2023-03-19T14:03:58;10.07;;;8.00;;
74227;SDS011;62587;52.352;5.006;2023-03-19T14:06:33;10.80;;;7.63;;
74227;SDS011;62587;52.352;5.006;2023-03-19T14:09:26;11.02;;;7.40;;
74227;SDS011;62587;52.352;5.006;2023-03-19T14:11:52;10.98;;;7.60;;
74227;SDS011;62587;52.352;5.006;2023-03-19T14:14:18;11.10;;;7.55;;
74227;SDS011;62587;52.352;5.006;2023-03-19T14:16:48;9.88;;;7.40;;
74227;SDS011;62587;52.352;5.006;2023-03-19T14:19:17;10.13;;;7.60;;
74227;SDS011;62587;52.352;5.006;2023-03-19T14:24:28;10.18;;;7.75;;
74227;SDS011;62587;52.352;5.006;2023-03-19T14:29:50;15.52;;;8.13;;
74227;SDS011;62587;52.352;5.006;2023-03-19T14:32:18;10.48;;;7.43;;
74227;SDS011;62587;52.352;5.006;2023-03-19T14:34:53;10.85;;;7.35;;
74227;SDS011;62587;52.352;5.006;2023-03-19T14:45:19;12.18;;;7.32;;
74227;SDS011;62587;52.352;5.006;2023-03-19T14:55:54;10.80;;;7.38;;
74227;SDS011;62587;52.352;5.006;2023-03-19T14:58:20;10.88;;;8.10;;
74227;SDS011;62587;52.352;5.006;2023-03-19T15:00:49;11.05;;;7.80;;
74227;SDS011;62587;52.352;5.006;2023-03-19T15:03:18;13.38;;;8.48;;
74227;SDS011;62587;52.352;5.006;2023-03-19T15:05:59;10.75;;;7.82;;
74227;SDS011;62587;52.352;5.006;2023-03-19T15:08:27;10.52;;;7.85;;
74227;SDS011;62587;52.352;5.006;2023-03-19T15:19:23;9.52;;;7.30;;
74227;SDS011;62587;52.352;5.006;2023-03-19T15:21:51;10.10;;;7.82;;
74227;SDS011;62587;52.352;5.006;2023-03-19T15:24:28;9.73;;;7.40;;
74227;SDS011;62587;52.352;5.006;2023-03-19T15:26:53;10.93;;;7.78;;
74227;SDS011;62587;52.352;5.006;2023-03-19T15:29:28;10.40;;;7.70;;
74227;SDS011;62587;52.352;5.006;2023-03-19T15:31:55;9.65;;;7.55;;
74227;SDS011;62587;52.352;5.006;2023-03-19T15:34:27;11.10;;;7.67;;
74227;SDS011;62587;52.352;5.006;2023-03-19T15:36:54;9.40;;;7.80;;
74227;SDS011;62587;52.352;5.006;2023-03-19T15:39:41;9.60;;;7.55;;
74227;SDS011;62587;52.352;5.006;2023-03-19T15:42:11;8.85;;;6.95;;
74227;SDS011;62587;52.352;5.006;2023-03-19T15:44:41;9.65;;;7.45;;
74227;SDS011;62587;52.352;5.006;2023-03-19T15:47:13;8.98;;;7.30;;
74227;SDS011;62587;52.352;5.006;2023-03-19T15:49:46;9.95;;;7.18;;
74227;SDS011;62587;52.352;5.006;2023-03-19T15:52:17;9.98;;;6.80;;
74227;SDS011;62587;52.352;5.006;2023-03-19T15:54:44;10.60;;;7.20;;
74227;SDS011;62587;52.352;5.006;2023-03-19T15:57:10;9.25;;;6.90;;
74227;SDS011;62587;52.352;5.006;2023-03-19T15:59:38;10.32;;;6.82;;
74227;SDS011;62587;52.352;5.006;2023-03-19T16:02:15;10.23;;;7.05;;
74227;SDS011;62587;52.352;5.006;2023-03-19T16:04:51;8.52;;;6.72;;
74227;SDS011;62587;52.352;5.006;2023-03-19T16:07:24;9.32;;;6.90;;
74227;SDS011;62587;52.352;5.006;2023-03-19T16:09:57;11.13;;;7.30;;
74227;SDS011;62587;52.352;5.006;2023-03-19T16:12:41;8.85;;;6.53;;
74227;SDS011;62587;52.352;5.006;2023-03-19T16:15:20;8.73;;;6.93;;
74227;SDS011;62587;52.352;5.006;2023-03-19T16:18:39;8.15;;;6.50;;
74227;SDS011;62587;52.352;5.006;2023-03-19T16:23:54;8.18;;;6.78;;
74227;SDS011;62587;52.352;5.006;2023-03-19T16:29:23;7.85;;;6.57;;
74227;SDS011;62587;52.352;5.006;2023-03-19T16:31:52;8.52;;;6.28;;
74227;SDS011;62587;52.352;5.006;2023-03-19T16:37:00;9.43;;;6.15;;
74227;SDS011;62587;52.352;5.006;2023-03-19T16:39:35;8.60;;;5.93;;
74227;SDS011;62587;52.352;5.006;2023-03-19T16:44:54;9.27;;;6.30;;
74227;SDS011;62587;52.352;5.006;2023-03-19T16:47:20;8.63;;;6.72;;
74227;SDS011;62587;52.352;5.006;2023-03-19T16:49:46;7.68;;;6.30;;
74227;SDS011;62587;52.352;5.006;2023-03-19T16:52:16;8.10;;;6.10;;
74227;SDS011;62587;52.352;5.006;2023-03-19T16:54:44;7.57;;;6.60;;
74227;SDS011;62587;52.352;5.006;2023-03-19T16:57:10;8.13;;;6.22;;
74227;SDS011;62587;52.352;5.006;2023-03-19T16:59:39;8.50;;;6.43;;
74227;SDS011;62587;52.352;5.006;2023-03-19T17:02:11;9.20;;;6.05;;
74227;SDS011;62587;52.352;5.006;2023-03-19T17:04:38;8.45;;;5.97;;